Time;durP1;ratioP1;P1;durP2;ratioP2;P2;SDS_P1;SDS_P2;PMS_P1;PMS_P2;Temp;Humidity;BMP_temperature;BMP_pressure;BME280_temperature;BME280_humidity;BME280_pressure;Samples;Min_cycle;Max_cycle;Signal;HPM_P1;HPM_P2
2023/12/31 00:00:55;;;;;;;20.40;2.70;;;8.50;99.90;;;;;;5093727;28;20405;-80
2023/12/31 00:03:21;;;;;;;19.13;1.50;;;8.50;99.90;;;;;;5093784;28;20188;-80
2023/12/31 00:05:47;;;;;;;20.30;2.30;;;8.40;99.90;;;;;;5093706;28;20180;-80
2023/12/31 00:08:13;;;;;;;24.93;2.40;;;8.40;99.90;;;;;;5092423;28;20267;-81
2023/12/31 00:10:39;;;;;;;19.35;1.70;;;8.40;99.90;;;;;;5084405;28;20168;-80
2023/12/31 00:13:05;;;;;;;20.00;2.20;;;8.40;99.90;;;;;;5080366;28;20206;-80
2023/12/31 00:15:32;;;;;;;20.90;2.05;;;8.40;99.90;;;;;;5080155;28;20423;-81
2023/12/31 00:17:57;;;;;;;20.95;2.20;;;8.40;99.90;;;;;;5078599;28;20249;-80
2023/12/31 00:20:23;;;;;;;20.40;2.30;;;8.30;99.90;;;;;;5079847;28;20153;-81
2023/12/31 00:22:49;;;;;;;19.80;2.03;;;8.30;99.90;;;;;;5079859;28;20169;-80
2023/12/31 00:25:16;;;;;;;20.30;2.30;;;8.30;99.90;;;;;;5079900;28;20181;-80
2023/12/31 00:27:42;;;;;;;21.02;2.58;;;8.30;99.90;;;;;;5079730;28;20165;-80
2023/12/31 00:30:08;;;;;;;20.35;2.30;;;8.30;99.90;;;;;;5080003;28;20177;-80
2023/12/31 00:32:34;;;;;;;20.63;2.70;;;8.30;99.90;;;;;;5078121;28;20223;-80
2023/12/31 00:35:00;;;;;;;21.20;2.60;;;8.30;99.90;;;;;;5080149;28;20183;-80
2023/12/31 00:37:25;;;;;;;20.50;2.47;;;8.20;99.90;;;;;;5080066;28;20239;-80
2023/12/31 00:39:51;;;;;;;19.70;1.93;;;8.30;99.90;;;;;;5079607;28;20856;-80
2023/12/31 00:42:17;;;;;;;20.70;2.60;;;8.20;99.90;;;;;;5079349;28;20206;-80
2023/12/31 00:44:46;;;;;;;20.07;2.50;;;8.20;99.90;;;;;;5079672;28;20187;-80
2023/12/31 00:47:11;;;;;;;21.60;2.63;;;8.20;99.90;;;;;;5079792;28;20168;-80
2023/12/31 00:49:37;;;;;;;19.87;2.20;;;8.20;99.90;;;;;;5079100;28;20165;-80
2023/12/31 00:52:03;;;;;;;20.70;2.53;;;8.20;99.90;;;;;;5078554;28;20275;-80
2023/12/31 00:54:28;;;;;;;19.80;1.90;;;8.20;99.90;;;;;;5079743;28;20191;-80
2023/12/31 00:56:54;;;;;;;20.10;1.93;;;8.10;99.90;;;;;;5079814;28;20403;-80
2023/12/31 00:59:20;;;;;;;19.90;2.00;;;8.10;99.90;;;;;;5079218;28;20279;-80
2023/12/31 01:01:50;;;;;;;19.93;2.20;;;8.10;99.90;;;;;;5079469;28;20169;-81
2023/12/31 01:06:43;;;;;;;19.25;2.08;;;8.10;99.90;;;;;;5116548;22;20232;-80
2023/12/31 01:09:10;;;;;;;19.40;2.07;;;8.20;99.90;;;;;;5039120;28;20174;-80
2023/12/31 01:11:36;;;;;;;19.13;1.60;;;8.30;99.90;;;;;;5039377;28;20190;-80
2023/12/31 01:14:02;;;;;;;19.30;1.80;;;8.30;99.90;;;;;;5039136;28;20658;-81
2023/12/31 01:16:28;;;;;;;18.90;2.13;;;8.40;99.90;;;;;;5020881;28;20440;-80
2023/12/31 01:18:53;;;;;;;19.53;1.27;;;8.50;99.90;;;;;;5039019;28;20195;-80
2023/12/31 01:21:19;;;;;;;20.00;1.73;;;8.50;99.90;;;;;;5037962;28;20195;-80
2023/12/31 01:23:45;;;;;;;17.90;1.60;;;8.60;99.90;;;;;;5020313;28;20170;-80
2023/12/31 01:26:11;;;;;;;19.38;1.88;;;8.60;99.90;;;;;;5020428;28;20190;-80
2023/12/31 01:28:36;;;;;;;18.23;1.57;;;8.60;99.90;;;;;;5038057;28;20255;-80
2023/12/31 01:31:02;;;;;;;18.40;1.80;;;8.60;99.90;;;;;;5020774;28;20219;-80
2023/12/31 01:33:28;;;;;;;17.63;1.20;;;8.60;99.90;;;;;;5038317;28;20174;-80
2023/12/31 01:35:54;;;;;;;18.77;2.00;;;8.60;99.90;;;;;;5038404;28;20225;-80
2023/12/31 01:38:19;;;;;;;18.75;1.80;;;8.60;99.90;;;;;;5019912;28;20240;-80
2023/12/31 01:40:53;;;;;;;18.47;1.77;;;8.60;99.90;;;;;;5037818;28;20220;-80
2023/12/31 01:43:19;;;;;;;18.27;1.67;;;8.70;99.90;;;;;;5038138;28;20170;-80
2023/12/31 01:45:45;;;;;;;24.00;2.22;;;8.70;99.90;;;;;;5019976;28;20196;-80
2023/12/31 01:48:11;;;;;;;17.40;1.40;;;8.70;99.90;;;;;;5037749;28;20252;-80
2023/12/31 01:50:37;;;;;;;18.83;1.83;;;8.60;99.90;;;;;;5037637;28;20198;-82
2023/12/31 01:53:03;;;;;;;19.17;1.63;;;8.60;99.90;;;;;;5038034;28;20770;-80
2023/12/31 01:55:29;;;;;;;18.20;1.60;;;8.60;99.90;;;;;;5019951;28;20694;-80
2023/12/31 01:57:55;;;;;;;18.23;1.60;;;8.60;1.00;;;;;;5037778;28;20166;-80
2023/12/31 02:00:20;;;;;;;18.80;2.00;;;8.60;1.00;;;;;;5037259;28;20190;-80
2023/12/31 02:02:49;;;;;;;17.50;1.30;;;8.50;99.90;;;;;;5019634;28;20691;-80
2023/12/31 02:05:15;;;;;;;18.70;2.00;;;8.50;99.90;;;;;;5037716;28;20523;-80
2023/12/31 02:07:41;;;;;;;19.65;1.77;;;8.50;99.90;;;;;;5038647;28;20149;-80
2023/12/31 02:10:07;;;;;;;22.17;2.00;;;8.50;99.90;;;;;;5037892;28;20184;-80
2023/12/31 02:12:33;;;;;;;18.95;1.55;;;8.50;99.90;;;;;;5020612;28;20170;-81
2023/12/31 02:14:59;;;;;;;19.00;2.20;;;8.40;99.90;;;;;;5037789;28;20186;-80
2023/12/31 02:17:24;;;;;;;19.93;1.70;;;8.40;99.90;;;;;;5020069;28;20174;-80
2023/12/31 02:19:50;;;;;;;20.47;1.70;;;8.40;99.90;;;;;;5037496;28;20228;-80
2023/12/31 02:22:16;;;;;;;19.50;2.10;;;8.40;99.90;;;;;;5020350;28;20540;-81
2023/12/31 02:24:48;;;;;;;20.87;2.30;;;8.40;99.90;;;;;;5037935;28;20222;-80
2023/12/31 02:27:15;;;;;;;21.45;2.55;;;8.50;99.90;;;;;;5037869;28;20248;-80
2023/12/31 02:29:41;;;;;;;19.50;2.90;;;8.50;99.90;;;;;;5037629;28;20170;-81
2023/12/31 02:32:07;;;;;;;19.10;2.22;;;8.50;99.90;;;;;;5020298;28;20261;-80
2023/12/31 02:34:32;;;;;;;19.80;2.60;;;8.50;99.90;;;;;;5037602;28;20630;-80
2023/12/31 02:36:58;;;;;;;19.60;2.83;;;8.50;99.90;;;;;;5037341;28;20173;-80
2023/12/31 02:39:26;;;;;;;24.30;2.77;;;8.50;99.90;;;;;;5038008;28;20658;-80
2023/12/31 02:41:51;;;;;;;19.05;2.50;;;8.50;99.90;;;;;;5037689;28;20535;-81
2023/12/31 02:44:20;;;;;;;20.70;2.90;;;8.50;99.90;;;;;;5037320;28;20162;-80
2023/12/31 02:46:49;;;;;;;19.63;2.35;;;8.50;99.90;;;;;;5037244;28;20196;-81
2023/12/31 02:49:14;;;;;;;20.75;3.05;;;8.60;99.90;;;;;;5038001;28;20523;-80
2023/12/31 02:51:40;;;;;;;20.17;2.80;;;8.60;99.90;;;;;;5037877;28;20170;-81
2023/12/31 02:54:06;;;;;;;22.17;3.50;;;8.70;99.90;;;;;;5037418;28;20170;-80
2023/12/31 02:56:38;;;;;;;21.47;3.57;;;8.70;99.90;;;;;;5019447;28;20193;-80
2023/12/31 02:59:03;;;;;;;20.80;2.55;;;8.70;99.90;;;;;;5037213;28;20567;-80
2023/12/31 03:01:29;;;;;;;20.37;2.63;;;8.70;99.90;;;;;;5019389;28;20216;-80
2023/12/31 03:03:54;;;;;;;19.33;2.57;;;8.70;99.90;;;;;;5037094;28;20602;-80
2023/12/31 03:06:20;;;;;;;20.20;2.53;;;8.70;99.90;;;;;;5036941;28;20201;-80
2023/12/31 03:08:46;;;;;;;21.07;3.47;;;8.70;99.90;;;;;;5020090;28;20222;-80
2023/12/31 03:11:11;;;;;;;20.00;2.33;;;8.60;99.90;;;;;;5036858;28;20193;-80
2023/12/31 03:13:37;;;;;;;20.27;3.00;;;8.60;99.90;;;;;;5036730;28;20166;-82
2023/12/31 03:16:06;;;;;;;20.70;2.87;;;8.60;99.90;;;;;;5037386;28;20189;-82
2023/12/31 03:18:33;;;;;;;20.23;2.90;;;8.60;99.90;;;;;;5036802;28;20193;-82
2023/12/31 03:20:58;;;;;;;22.20;3.05;;;8.60;99.90;;;;;;5019561;28;20248;-82
2023/12/31 03:23:24;;;;;;;20.17;2.97;;;8.60;99.90;;;;;;5037226;28;20158;-82
2023/12/31 03:25:49;;;;;;;21.83;2.80;;;8.50;99.90;;;;;;5019620;28;20188;-82
2023/12/31 03:28:15;;;;;;;20.67;2.40;;;8.50;99.90;;;;;;5037681;28;20650;-82
2023/12/31 03:30:41;;;;;;;22.10;3.20;;;8.60;99.90;;;;;;5037356;28;20170;-83
2023/12/31 03:33:07;;;;;;;23.13;3.27;;;8.60;99.90;;;;;;5036490;28;20224;-80
2023/12/31 03:35:33;;;;;;;20.40;2.90;;;8.60;99.90;;;;;;5036510;28;20185;-80
2023/12/31 03:37:58;;;;;;;19.80;2.00;;;8.70;99.90;;;;;;5036421;28;20288;-80
2023/12/31 03:40:24;;;;;;;22.50;2.90;;;8.70;99.90;;;;;;5019902;28;20605;-81
2023/12/31 03:42:50;;;;;;;22.38;3.47;;;8.70;99.90;;;;;;5036408;28;20237;-80
2023/12/31 03:45:16;;;;;;;20.20;2.70;;;8.70;99.90;;;;;;5038480;28;20271;-80
2023/12/31 03:47:41;;;;;;;20.27;2.90;;;8.70;99.90;;;;;;5040795;28;20165;-81
2023/12/31 03:50:08;;;;;;;21.63;2.90;;;8.80;99.90;;;;;;5022971;28;20176;-80
2023/12/31 03:52:34;;;;;;;19.35;2.22;;;8.70;99.90;;;;;;5040631;28;20170;-81
2023/12/31 03:55:00;;;;;;;22.17;2.80;;;8.70;99.90;;;;;;5022871;28;20192;-80
2023/12/31 03:57:25;;;;;;;21.87;3.00;;;8.70;99.90;;;;;;5040493;28;20154;-80
2023/12/31 04:07:35;;;;;;;19.92;2.60;;;8.80;99.90;;;;;;5111585;22;20585;-82
2023/12/31 04:10:04;;;;;;;20.13;2.33;;;8.80;99.90;;;;;;5080645;28;20165;-82
2023/12/31 04:12:30;;;;;;;19.27;2.40;;;8.80;99.90;;;;;;5080354;28;20168;-82
2023/12/31 04:14:55;;;;;;;19.47;2.63;;;8.80;99.90;;;;;;5080719;28;20176;-82
2023/12/31 04:17:21;;;;;;;19.43;2.20;;;8.80;99.90;;;;;;5062405;28;20192;-82
2023/12/31 04:19:47;;;;;;;18.73;2.07;;;8.80;99.90;;;;;;5062169;28;20295;-82
2023/12/31 04:22:13;;;;;;;19.60;2.10;;;8.80;99.90;;;;;;5062228;28;20419;-82
2023/12/31 04:24:39;;;;;;;19.47;2.57;;;8.90;99.90;;;;;;5062085;28;20648;-82
2023/12/31 04:27:05;;;;;;;18.95;2.30;;;8.90;99.90;;;;;;5080852;28;20660;-82
2023/12/31 04:29:30;;;;;;;20.37;2.73;;;8.90;99.90;;;;;;5080366;28;20169;-82
2023/12/31 04:31:56;;;;;;;18.67;1.97;;;8.80;99.90;;;;;;5062363;28;20164;-82
2023/12/31 04:34:21;;;;;;;20.17;2.70;;;8.90;99.90;;;;;;5209699;22;20234;-80
2023/12/31 04:36:47;;;;;;;19.40;2.30;;;8.80;99.90;;;;;;5142440;22;20224;-81
2023/12/31 04:39:13;;;;;;;20.83;2.30;;;8.80;99.90;;;;;;5079355;28;20193;-81
2023/12/31 04:41:39;;;;;;;19.60;2.70;;;8.80;99.90;;;;;;5079810;28;20161;-81
2023/12/31 04:44:04;;;;;;;18.80;2.27;;;8.80;99.90;;;;;;5079717;28;20165;-80
2023/12/31 04:46:30;;;;;;;19.03;2.10;;;8.80;99.90;;;;;;5079575;28;20188;-80
2023/12/31 04:48:59;;;;;;;18.37;2.17;;;8.80;99.90;;;;;;5079584;28;20168;-80
2023/12/31 04:51:25;;;;;;;20.20;3.00;;;8.70;99.90;;;;;;5079801;28;20175;-80
2023/12/31 04:53:52;;;;;;;18.85;2.15;;;8.70;99.90;;;;;;5080152;28;20660;-80
2023/12/31 04:56:23;;;;;;;19.52;2.60;;;8.70;99.90;;;;;;5077878;28;20188;-80
2023/12/31 04:58:53;;;;;;;19.08;2.47;;;8.70;99.90;;;;;;5078958;28;20699;-81
2023/12/31 05:01:19;;;;;;;17.83;1.73;;;8.70;99.90;;;;;;5062004;28;20533;-81
2023/12/31 05:03:46;;;;;;;18.20;2.20;;;8.80;99.90;;;;;;5079405;28;20161;-81
2023/12/31 05:06:15;;;;;;;19.98;2.15;;;8.80;99.90;;;;;;5077934;28;20862;-83
2023/12/31 05:08:45;;;;;;;18.42;2.33;;;8.80;99.90;;;;;;5077467;28;20218;-83
2023/12/31 05:11:14;;;;;;;19.30;2.25;;;8.80;99.90;;;;;;5078078;28;20168;-81
2023/12/31 05:13:41;;;;;;;20.30;2.13;;;8.80;99.90;;;;;;5078414;28;20216;-80
2023/12/31 05:16:08;;;;;;;19.15;2.30;;;8.90;99.90;;;;;;5078631;28;20272;-81
2023/12/31 05:18:34;;;;;;;20.70;2.78;;;8.80;99.90;;;;;;5077248;28;20195;-81
2023/12/31 05:21:01;;;;;;;18.10;2.07;;;8.70;99.90;;;;;;5079038;28;20156;-81
2023/12/31 05:23:27;;;;;;;19.75;1.95;;;8.70;99.90;;;;;;5077049;28;20494;-81
2023/12/31 05:25:53;;;;;;;18.75;2.33;;;8.70;99.90;;;;;;5076852;28;20283;-81
2023/12/31 05:28:19;;;;;;;19.38;2.60;;;8.70;99.90;;;;;;5077870;28;20176;-80
2023/12/31 05:30:45;;;;;;;18.90;2.23;;;8.70;99.90;;;;;;5077878;28;20161;-81
2023/12/31 05:33:14;;;;;;;18.87;2.30;;;8.70;99.90;;;;;;5077018;28;20540;-80
2023/12/31 05:35:39;;;;;;;19.05;2.15;;;8.70;99.90;;;;;;5077950;28;20318;-81
2023/12/31 05:38:05;;;;;;;18.40;1.90;;;8.70;99.90;;;;;;5076971;28;20227;-81
2023/12/31 05:40:31;;;;;;;18.80;2.50;;;8.70;99.90;;;;;;5077202;28;20661;-81
2023/12/31 05:42:57;;;;;;;20.67;2.00;;;8.70;99.90;;;;;;5076626;28;20172;-81
2023/12/31 05:45:22;;;;;;;20.50;2.90;;;8.70;99.90;;;;;;5077939;28;20172;-81
2023/12/31 05:47:48;;;;;;;20.60;2.10;;;8.70;99.90;;;;;;5076852;28;20173;-81
2023/12/31 05:50:15;;;;;;;22.95;2.80;;;8.70;99.90;;;;;;5076838;28;20165;-81
2023/12/31 05:52:40;;;;;;;19.90;2.85;;;8.70;99.90;;;;;;5076577;28;20633;-81
2023/12/31 05:55:06;;;;;;;18.97;2.30;;;8.70;99.90;;;;;;5076460;28;20164;-80
2023/12/31 05:57:32;;;;;;;18.98;2.38;;;8.60;99.90;;;;;;5077608;28;20267;-80
2023/12/31 05:59:59;;;;;;;21.13;2.50;;;8.70;99.90;;;;;;5080050;28;20212;-81
2023/12/31 06:02:25;;;;;;;18.35;2.35;;;8.70;99.90;;;;;;5080492;28;20168;-81
2023/12/31 06:04:51;;;;;;;18.00;1.83;;;8.70;99.90;;;;;;5077872;28;20164;-81
2023/12/31 06:07:17;;;;;;;18.20;2.00;;;8.80;99.90;;;;;;5076949;28;20625;-81
2023/12/31 06:09:45;;;;;;;18.83;1.97;;;8.80;99.90;;;;;;5076519;28;20177;-81
2023/12/31 06:12:11;;;;;;;19.20;1.88;;;8.70;99.90;;;;;;5078049;28;20256;-81
2023/12/31 06:14:37;;;;;;;18.03;2.23;;;8.70;99.90;;;;;;5077960;28;20191;-81
2023/12/31 06:17:03;;;;;;;19.53;2.63;;;8.70;99.90;;;;;;5076876;28;20207;-81
2023/12/31 06:19:28;;;;;;;18.80;2.10;;;8.70;99.90;;;;;;5077342;28;20196;-81
2023/12/31 06:21:54;;;;;;;18.70;2.10;;;8.70;99.90;;;;;;5077962;28;20403;-81
2023/12/31 06:24:20;;;;;;;19.17;2.20;;;8.70;99.90;;;;;;5078037;28;20168;-81
2023/12/31 06:26:45;;;;;;;18.10;1.90;;;8.70;99.90;;;;;;5077761;28;20188;-81
2023/12/31 06:29:11;;;;;;;18.57;2.17;;;8.70;99.90;;;;;;5076059;28;20207;-81
2023/12/31 06:31:37;;;;;;;17.87;1.70;;;8.70;99.90;;;;;;5078002;28;20165;-81
2023/12/31 06:34:03;;;;;;;18.67;1.90;;;8.70;99.90;;;;;;5076726;28;20490;-81
2023/12/31 06:36:32;;;;;;;19.10;2.15;;;8.70;99.90;;;;;;5076130;28;20228;-81
2023/12/31 06:38:57;;;;;;;18.15;1.92;;;8.70;99.90;;;;;;5077313;28;20188;-81
2023/12/31 06:41:23;;;;;;;18.23;1.97;;;8.80;99.90;;;;;;5078152;28;20164;-81
2023/12/31 06:43:49;;;;;;;19.20;1.80;;;8.80;99.90;;;;;;5077920;28;20161;-81
2023/12/31 06:46:15;;;;;;;18.95;1.80;;;8.90;99.90;;;;;;5077410;28;20196;-81
2023/12/31 06:48:41;;;;;;;18.40;1.80;;;8.80;99.90;;;;;;5077605;28;20207;-81
2023/12/31 06:51:10;;;;;;;17.87;1.77;;;8.80;99.90;;;;;;5077241;28;20255;-80
2023/12/31 06:53:39;;;;;;;19.35;2.25;;;8.80;99.90;;;;;;5076468;28;20529;-81
2023/12/31 06:56:08;;;;;;;20.55;2.10;;;8.80;99.90;;;;;;5075707;28;20192;-81
2023/12/31 06:58:40;;;;;;;18.15;1.98;;;8.80;93.30;;;;;;5077285;28;20678;-81
2023/12/31 07:01:06;;;;;;;18.80;1.88;;;8.80;93.40;;;;;;5150556;22;20243;-80
2023/12/31 07:03:32;;;;;;;17.07;1.63;;;8.80;99.90;;;;;;5019306;28;20240;-81
2023/12/31 07:06:00;;;;;;;19.07;2.27;;;8.80;99.90;;;;;;5036798;28;20186;-80
2023/12/31 07:08:26;;;;;;;18.35;1.80;;;8.80;99.90;;;;;;5003289;28;20680;-80
2023/12/31 07:10:52;;;;;;;17.47;1.70;;;8.80;99.90;;;;;;5037011;28;20174;-80
2023/12/31 07:13:18;;;;;;;18.67;2.10;;;8.80;99.90;;;;;;5018958;28;20257;-80
2023/12/31 07:15:44;;;;;;;17.70;1.40;;;8.80;99.90;;;;;;5036504;28;20587;-80
2023/12/31 07:18:10;;;;;;;19.10;1.93;;;8.80;99.90;;;;;;5036260;28;20209;-80
2023/12/31 07:20:36;;;;;;;18.73;1.70;;;8.80;99.90;;;;;;5038605;28;20229;-80
2023/12/31 07:23:04;;;;;;;20.97;2.17;;;8.80;99.90;;;;;;5023400;28;20177;-80
2023/12/31 07:25:31;;;;;;;17.75;1.70;;;8.80;99.90;;;;;;5040792;28;20478;-80
2023/12/31 07:28:00;;;;;;;19.83;2.35;;;8.70;99.90;;;;;;5022803;28;20208;-80
2023/12/31 07:30:26;;;;;;;17.73;1.63;;;8.70;99.90;;;;;;5023045;28;20701;-80
2023/12/31 07:32:52;;;;;;;18.40;2.20;;;8.70;99.90;;;;;;5023078;28;20276;-80
2023/12/31 07:35:21;;;;;;;18.55;2.30;;;8.60;99.90;;;;;;5041881;28;20166;-80
2023/12/31 07:37:47;;;;;;;17.55;1.65;;;8.60;99.90;;;;;;5023327;28;20191;-80
2023/12/31 07:40:13;;;;;;;19.00;1.80;;;8.60;99.90;;;;;;5040567;28;20190;-80
2023/12/31 07:42:39;;;;;;;20.50;2.77;;;8.50;99.90;;;;;;5040495;28;20503;-80
2023/12/31 07:45:06;;;;;;;21.77;1.90;;;8.50;99.90;;;;;;5023020;28;20161;-80
2023/12/31 07:47:35;;;;;;;18.75;2.10;;;8.50;99.90;;;;;;5022820;28;20787;-80
2023/12/31 07:50:04;;;;;;;18.90;1.90;;;8.50;99.90;;;;;;5040679;28;20181;-81
2023/12/31 07:52:30;;;;;;;20.27;2.10;;;8.50;99.90;;;;;;5040591;28;20245;-80
2023/12/31 07:54:55;;;;;;;20.33;2.10;;;8.60;99.90;;;;;;5041502;28;20194;-80
2023/12/31 07:57:21;;;;;;;20.10;2.20;;;8.60;99.90;;;;;;5022936;28;20193;-80
2023/12/31 07:59:47;;;;;;;18.40;1.73;;;8.60;99.90;;;;;;5039564;28;20204;-80
2023/12/31 08:02:13;;;;;;;18.87;2.37;;;8.60;99.90;;;;;;5022267;28;20668;-80
2023/12/31 08:04:39;;;;;;;21.63;1.83;;;8.60;99.90;;;;;;5022298;28;20256;-80
2023/12/31 08:07:04;;;;;;;17.50;1.67;;;8.60;99.90;;;;;;5039990;28;20224;-80
2023/12/31 08:09:30;;;;;;;17.40;1.60;;;8.70;99.90;;;;;;5040316;28;20177;-80
2023/12/31 08:11:56;;;;;;;20.40;2.47;;;8.70;99.90;;;;;;5040218;28;20623;-81
2023/12/31 08:14:22;;;;;;;18.37;1.93;;;8.80;99.90;;;;;;5040126;28;20400;-80
2023/12/31 08:16:48;;;;;;;19.00;1.80;;;8.80;98.70;;;;;;5039621;28;20199;-80
2023/12/31 08:19:16;;;;;;;18.27;1.98;;;8.90;97.90;;;;;;5039505;28;20185;-80
2023/12/31 08:21:42;;;;;;;18.92;2.03;;;8.90;96.10;;;;;;5039900;28;20166;-80
2023/12/31 08:24:07;;;;;;;18.70;2.00;;;9.00;95.90;;;;;;5040416;28;20166;-80
2023/12/31 08:26:35;;;;;;;18.50;1.70;;;9.00;95.30;;;;;;5039854;28;20186;-80
2023/12/31 08:29:02;;;;;;;17.80;2.03;;;9.10;94.90;;;;;;5040169;28;20181;-80
2023/12/31 08:31:28;;;;;;;17.73;1.95;;;9.10;94.30;;;;;;5039679;28;20162;-80
2023/12/31 08:33:53;;;;;;;18.40;1.80;;;9.10;92.00;;;;;;5022059;28;20656;-80
2023/12/31 08:36:19;;;;;;;17.57;1.87;;;9.10;92.90;;;;;;5039292;28;20709;-80
2023/12/31 08:38:45;;;;;;;20.90;2.00;;;9.10;92.00;;;;;;5039253;28;20248;-80
2023/12/31 08:41:10;;;;;;;18.83;1.97;;;9.20;18.60;;;;;;5039166;28;20530;-80
2023/12/31 08:43:36;;;;;;;17.70;1.73;;;9.20;16.70;;;;;;5021636;28;20216;-80
2023/12/31 08:46:03;;;;;;;17.63;1.80;;;9.30;35.30;;;;;;5021841;28;20196;-80
2023/12/31 08:48:29;;;;;;;17.73;1.83;;;9.40;11.30;;;;;;5039748;28;20567;-80
2023/12/31 08:55:56;;;;;;;21.00;2.30;;;9.50;90.60;;;;;;5207546;22;20224;-80
2023/12/31 08:58:21;;;;;;;18.10;2.37;;;9.50;60.70;;;;;;5079241;28;20241;-79
2023/12/31 09:00:47;;;;;;;18.00;1.80;;;9.50;1.00;;;;;;5079384;28;20247;-79
2023/12/31 09:03:13;;;;;;;17.73;1.90;;;9.50;1.00;;;;;;5079540;28;20184;-79
2023/12/31 09:05:38;;;;;;;18.40;2.33;;;9.50;58.20;;;;;;5079502;28;20185;-79
2023/12/31 09:08:05;;;;;;;17.83;2.00;;;9.50;1.00;;;;;;5079227;28;20161;-79
2023/12/31 09:10:31;;;;;;;18.50;2.53;;;9.50;48.10;;;;;;5078595;28;20184;-80
2023/12/31 09:12:56;;;;;;;17.23;1.70;;;9.60;1.00;;;;;;5079115;28;20583;-79
2023/12/31 09:15:23;;;;;;;18.63;2.20;;;9.60;1.00;;;;;;5078669;28;20227;-79
2023/12/31 09:17:48;;;;;;;17.35;1.73;;;9.70;23.10;;;;;;5078511;28;20327;-80
2023/12/31 09:20:14;;;;;;;19.20;2.73;;;9.70;1.00;;;;;;5061308;28;20192;-79
2023/12/31 09:22:41;;;;;;;19.30;2.83;;;9.80;1.00;;;;;;5078774;28;20157;-79
2023/12/31 09:25:08;;;;;;;18.75;2.72;;;9.80;1.00;;;;;;5078854;28;20157;-79
2023/12/31 09:27:34;;;;;;;19.35;2.30;;;9.90;19.80;;;;;;5060005;28;20188;-79
2023/12/31 09:30:00;;;;;;;20.55;2.97;;;9.80;1.00;;;;;;5060174;28;20192;-79
2023/12/31 09:32:26;;;;;;;18.60;2.57;;;9.80;1.00;;;;;;5078337;28;20175;-80
2023/12/31 09:34:51;;;;;;;18.87;2.20;;;9.90;99.90;;;;;;5060192;28;20655;-80
2023/12/31 09:37:19;;;;;;;18.43;2.80;;;10.00;99.90;;;;;;5078199;28;20668;-79
2023/12/31 09:39:46;;;;;;;19.23;2.47;;;10.00;99.90;;;;;;5078433;28;20180;-80
2023/12/31 09:42:13;;;;;;;22.55;2.65;;;10.10;1.00;;;;;;5059794;28;20168;-79
2023/12/31 09:44:43;;;;;;;19.38;2.55;;;10.10;1.00;;;;;;5060235;28;20179;-79
2023/12/31 09:47:11;;;;;;;17.48;2.00;;;10.10;1.00;;;;;;5077921;28;20173;-79
2023/12/31 09:49:38;;;;;;;19.42;2.22;;;10.10;99.90;;;;;;5078227;28;20576;-79
2023/12/31 09:52:08;;;;;;;18.05;2.22;;;10.20;50.70;;;;;;5059644;28;20519;-79
2023/12/31 09:54:36;;;;;;;20.88;2.60;;;10.30;99.90;;;;;;5060154;28;20173;-79
2023/12/31 09:57:04;;;;;;;19.75;2.78;;;10.40;99.90;;;;;;5121355;22;20261;-79
2023/12/31 09:59:30;;;;;;;18.00;2.70;;;10.50;99.90;;;;;;5020711;28;20197;-78
2023/12/31 10:01:59;;;;;;;18.60;2.27;;;10.60;1.00;;;;;;5019691;28;20568;-79
2023/12/31 10:04:26;;;;;;;18.30;2.40;;;10.60;3.40;;;;;;5037118;28;20153;-79
2023/12/31 10:06:53;;;;;;;18.80;3.00;;;10.70;1.00;;;;;;5037167;28;20538;-80
2023/12/31 10:09:20;;;;;;;19.10;2.67;;;10.70;99.90;;;;;;5037505;28;20162;-80
2023/12/31 10:11:46;;;;;;;19.25;2.70;;;10.80;99.90;;;;;;5037870;28;20181;-80
2023/12/31 10:14:12;;;;;;;17.25;2.13;;;10.90;43.40;;;;;;5037546;28;20173;-79
2023/12/31 10:16:43;;;;;;;17.67;1.85;;;10.90;99.90;;;;;;5038109;28;20186;-79
2023/12/31 10:19:10;;;;;;;17.38;2.15;;;10.90;99.90;;;;;;5020037;28;20284;-79
2023/12/31 10:21:36;;;;;;;17.65;2.05;;;10.90;99.90;;;;;;5020135;28;20169;-80
2023/12/31 10:24:02;;;;;;;17.73;1.60;;;10.90;99.90;;;;;;5037926;28;20166;-79
2023/12/31 10:26:28;;;;;;;18.17;1.53;;;10.80;99.90;;;;;;5037422;28;20427;-79
2023/12/31 10:28:54;;;;;;;16.38;1.27;;;10.80;99.90;;;;;;5037412;28;20404;-80
2023/12/31 10:31:21;;;;;;;16.53;1.40;;;10.80;87.90;;;;;;5019901;28;20174;-80
2023/12/31 10:33:47;;;;;;;17.13;1.55;;;10.80;90.90;;;;;;5037655;28;20157;-80
2023/12/31 10:36:13;;;;;;;16.70;1.50;;;10.80;99.90;;;;;;5037675;28;20186;-80
2023/12/31 10:38:46;;;;;;;15.97;1.20;;;10.70;35.90;;;;;;5019557;28;20189;-79
2023/12/31 10:41:24;;;;;;;16.27;1.02;;;10.70;99.90;;;;;;5019689;28;20401;-79
2023/12/31 10:43:50;;;;;;;17.10;1.60;;;10.60;65.70;;;;;;5020351;28;20172;-80
2023/12/31 10:46:18;;;;;;;16.35;1.00;;;10.70;17.50;;;;;;5037532;28;20554;-80
2023/12/31 10:48:55;;;;;;;16.58;0.90;;;10.60;35.10;;;;;;5036835;28;20583;-79
2023/12/31 10:51:23;;;;;;;17.52;1.30;;;10.60;21.70;;;;;;5037338;28;20157;-79
2023/12/31 10:53:54;;;;;;;17.30;1.08;;;10.50;1.00;;;;;;5019570;28;20660;-80
2023/12/31 10:56:21;;;;;;;19.15;1.08;;;10.40;1.00;;;;;;5019893;28;20205;-80
2023/12/31 10:58:47;;;;;;;16.40;0.90;;;10.40;1.00;;;;;;5037502;28;20189;-80
2023/12/31 11:01:16;;;;;;;16.95;1.15;;;10.40;1.00;;;;;;5037431;28;20154;-80
2023/12/31 11:03:43;;;;;;;16.98;0.93;;;10.50;1.00;;;;;;5037257;28;20162;-80
2023/12/31 11:06:10;;;;;;;16.38;0.80;;;10.50;1.00;;;;;;5036942;28;20188;-80
2023/12/31 11:08:37;;;;;;;19.90;0.82;;;10.40;1.00;;;;;;5036728;28;20193;-80
2023/12/31 11:11:03;;;;;;;17.40;1.13;;;10.40;90.00;;;;;;5037016;28;20249;-80
2023/12/31 11:13:31;;;;;;;17.63;1.10;;;10.40;49.40;;;;;;5017993;28;20177;-80
2023/12/31 11:16:01;;;;;;;17.15;1.10;;;10.40;24.40;;;;;;5035673;28;20188;-80
2023/12/31 11:18:47;;;;;;;16.40;0.80;;;10.40;1.00;;;;;;5035916;28;20723;-80
2023/12/31 11:21:38;;;;;;;16.55;1.00;;;10.30;6.80;;;;;;5036005;28;20150;-79
2023/12/31 11:24:07;;;;;;;16.70;0.90;;;10.30;99.90;;;;;;5017654;28;20205;-80
2023/12/31 11:26:34;;;;;;;17.05;0.90;;;10.30;79.40;;;;;;5035304;28;20201;-80
2023/12/31 11:29:01;;;;;;;16.58;0.88;;;10.20;3.90;;;;;;5035626;28;20169;-80
2023/12/31 11:31:27;;;;;;;17.02;1.08;;;10.30;20.10;;;;;;5036105;28;20169;-80
2023/12/31 11:33:52;;;;;;;17.20;1.13;;;10.20;1.00;;;;;;5035518;28;20649;-79
2023/12/31 11:36:18;;;;;;;17.27;1.40;;;10.20;99.90;;;;;;5018163;28;20429;-80
2023/12/31 11:38:59;;;;;;;16.83;0.80;;;10.20;99.90;;;;;;5035632;28;20197;-80
2023/12/31 11:41:27;;;;;;;17.13;1.10;;;10.20;99.90;;;;;;5017693;28;20173;-80
2023/12/31 11:43:53;;;;;;;16.85;0.85;;;10.20;28.30;;;;;;5036621;28;20164;-80
2023/12/31 11:46:37;;;;;;;16.87;1.00;;;10.30;18.70;;;;;;5037224;28;20256;-79
2023/12/31 11:49:07;;;;;;;16.55;0.90;;;10.30;41.40;;;;;;5037207;28;20463;-80
2023/12/31 11:51:57;;;;;;;17.05;1.10;;;10.30;48.50;;;;;;5019034;28;20634;-80
2023/12/31 11:54:39;;;;;;;17.48;1.00;;;10.40;99.90;;;;;;5018952;28;20174;-79
2023/12/31 11:57:08;;;;;;;16.92;0.90;;;10.30;99.90;;;;;;5036386;28;20213;-79
2023/12/31 11:59:38;;;;;;;16.67;0.93;;;10.30;99.90;;;;;;5036780;28;20673;-79
2023/12/31 12:02:05;;;;;;;16.83;0.90;;;10.40;4.90;;;;;;5036567;28;20170;-79
2023/12/31 12:04:32;;;;;;;19.63;1.15;;;10.30;1.00;;;;;;5036759;28;20193;-80
2023/12/31 12:06:58;;;;;;;17.25;0.90;;;10.30;99.90;;;;;;5039219;28;20190;-79
2023/12/31 12:09:32;;;;;;;17.05;0.88;;;10.40;99.90;;;;;;5039797;28;20586;-80
2023/12/31 12:12:02;;;;;;;16.98;1.00;;;10.40;3.90;;;;;;5040253;28;20170;-80
2023/12/31 12:14:28;;;;;;;18.40;1.15;;;10.50;1.00;;;;;;5040450;28;20257;-81
2023/12/31 12:16:54;;;;;;;17.60;1.13;;;10.40;34.00;;;;;;5040437;28;20278;-80
2023/12/31 12:19:21;;;;;;;17.08;0.95;;;10.40;1.00;;;;;;5040144;28;20184;-80
2023/12/31 12:21:48;;;;;;;17.48;0.90;;;10.40;82.40;;;;;;5040515;28;20301;-80
2023/12/31 12:24:14;;;;;;;16.90;1.00;;;10.40;1.00;;;;;;5039964;28;20173;-80
2023/12/31 12:26:40;;;;;;;16.35;0.70;;;10.40;94.20;;;;;;5022192;28;20566;-80
2023/12/31 12:29:09;;;;;;;16.45;0.77;;;10.50;4.40;;;;;;5039768;28;20514;-80
2023/12/31 12:31:36;;;;;;;18.73;1.00;;;10.60;1.00;;;;;;5039828;28;20508;-80
2023/12/31 12:34:03;;;;;;;17.40;0.90;;;10.70;1.00;;;;;;5040466;28;20178;-80
2023/12/31 12:36:30;;;;;;;16.23;0.70;;;10.70;1.00;;;;;;5039713;28;20189;-81
2023/12/31 12:39:01;;;;;;;17.40;1.00;;;10.80;1.00;;;;;;5021591;28;20625;-81
2023/12/31 12:41:31;;;;;;;17.50;0.93;;;10.70;1.00;;;;;;5021675;28;20219;-81
2023/12/31 12:44:02;;;;;;;16.05;0.70;;;10.80;1.00;;;;;;5021539;28;20173;-80
2023/12/31 12:46:30;;;;;;;16.23;0.80;;;10.60;1.00;;;;;;5039517;28;20654;-81
2023/12/31 12:48:57;;;;;;;16.25;0.70;;;10.70;1.00;;;;;;5040092;28;20635;-81
2023/12/31 12:51:23;;;;;;;16.88;1.52;;;10.60;1.00;;;;;;5039496;28;20170;-81
2023/12/31 12:53:50;;;;;;;17.60;1.00;;;10.70;1.00;;;;;;5021696;28;20260;-80
2023/12/31 12:56:16;;;;;;;17.10;0.80;;;10.70;1.00;;;;;;5112219;22;20577;-81
2023/12/31 12:58:41;;;;;;;16.63;0.90;;;10.70;1.00;;;;;;5039455;28;20232;-80